Time;durP1;ratioP1;P1;durP2;ratioP2;P2;SDS_P1;SDS_P2;PMS_P1;PMS_P2;Temp;Humidity;BMP_temperature;BMP_pressure;BME280_temperature;BME280_humidity;BME280_pressure;Samples;Min_cycle;Max_cycle;Signal;HPM_P1;HPM_P2
2022/07/17 00:00:42;;;;;;;12.70;2.70;;;;;;;25.31;54.82;100478.81;5033156;28;20033;-76
2022/07/17 00:03:08;;;;;;;10.45;2.63;;;;;;;25.38;54.79;100477.78;5033073;28;20144;-72
2022/07/17 00:05:34;;;;;;;10.40;2.78;;;;;;;25.60;53.79;100512.50;5032844;28;20392;-71
2022/07/17 00:08:00;;;;;;;6.68;2.75;;;;;;;25.50;53.48;100492.50;5033167;28;20036;-73
2022/07/17 00:10:25;;;;;;;5.78;2.38;;;;;;;25.72;54.04;100529.84;5032917;28;20030;-72
2022/07/17 00:12:51;;;;;;;7.90;2.60;;;;;;;25.74;55.36;100529.81;5033033;28;20032;-71
2022/07/17 00:15:16;;;;;;;9.10;2.63;;;;;;;25.60;55.91;100515.16;5032955;28;20025;-74
2022/07/17 00:17:42;;;;;;;7.07;3.00;;;;;;;25.66;57.04;100536.16;5032621;28;20060;-71
2022/07/17 00:20:08;;;;;;;5.53;2.75;;;;;;;25.52;56.93;100535.59;5032755;28;20026;-72
2022/07/17 00:22:34;;;;;;;4.65;2.78;;;;;;;25.24;57.01;100517.72;5032289;28;20029;-73
2022/07/17 00:24:59;;;;;;;5.80;2.70;;;;;;;25.18;56.94;100539.91;5029625;28;20048;-74
2022/07/17 00:27:25;;;;;;;5.75;2.80;;;;;;;24.98;56.85;100499.84;5032562;28;20532;-77
2022/07/17 00:29:50;;;;;;;9.02;3.10;;;;;;;25.18;56.51;100544.28;5032556;28;20522;-76
2022/07/17 00:32:16;;;;;;;9.00;3.15;;;;;;;25.09;57.64;100532.16;5031259;28;20072;-76
2022/07/17 00:34:42;;;;;;;8.30;2.72;;;;;;;25.01;57.35;100545.53;5027161;28;20100;-74
2022/07/17 00:37:07;;;;;;;10.15;3.20;;;;;;;24.88;57.32;100544.06;5031358;28;20025;-74
2022/07/17 00:39:33;;;;;;;6.82;2.72;;;;;;;24.76;57.20;100539.94;5031980;28;20025;-73
2022/07/17 00:41:58;;;;;;;6.10;2.78;;;;;;;24.54;58.08;100519.19;5034908;28;20053;-73
2022/07/17 00:44:26;;;;;;;3.90;2.58;;;;;;;24.50;58.63;100530.72;5051899;28;20062;-71
2022/07/17 00:46:51;;;;;;;6.15;3.00;;;;;;;24.45;58.66;100526.41;5051815;28;20025;-72
2022/07/17 00:49:17;;;;;;;3.63;2.40;;;;;;;24.34;59.00;100518.75;5052213;28;20032;-76
2022/07/17 00:51:42;;;;;;;7.40;3.00;;;;;;;24.20;59.14;100514.59;5051236;28;20107;-72
2022/07/17 00:54:11;;;;;;;5.22;2.95;;;;;;;24.25;58.99;100518.91;5051965;28;20013;-71
2022/07/17 00:56:39;;;;;;;11.52;2.95;;;;;;;24.36;58.95;100527.47;5052055;28;20115;-73
2022/07/17 00:59:06;;;;;;;8.30;2.72;;;;;;;24.48;58.39;100526.38;5051962;28;20057;-72
2022/07/17 01:01:31;;;;;;;8.05;2.83;;;;;;;24.46;58.80;100518.50;5051900;28;20029;-72
2022/07/17 01:03:58;;;;;;;6.60;2.53;;;;;;;24.45;58.43;100521.16;5051846;28;20039;-73
2022/07/17 01:06:23;;;;;;;4.45;2.50;;;;;;;24.54;58.62;100526.25;5051569;28;20031;-73
2022/07/17 01:08:49;;;;;;;9.75;2.72;;;;;;;24.62;58.45;100528.72;5051280;28;20016;-72
2022/07/17 01:11:15;;;;;;;6.88;2.50;;;;;;;24.48;58.69;100523.75;5051947;28;20036;-73
2022/07/17 01:13:41;;;;;;;8.90;3.20;;;;;;;24.27;59.33;100536.44;5051844;28;20024;-75
2022/07/17 01:16:07;;;;;;;8.05;2.80;;;;;;;24.20;59.61;100533.06;5051254;28;20029;-76
2022/07/17 01:18:33;;;;;;;6.25;3.05;;;;;;;23.92;60.06;100529.19;5051663;28;20067;-72
2022/07/17 01:21:04;;;;;;;6.47;2.70;;;;;;;23.41;61.38;100497.47;5050821;28;20048;-72
2022/07/17 01:23:29;;;;;;;6.45;2.85;;;;;;;23.68;61.24;100534.78;5051445;28;20025;-75
2022/07/17 01:25:55;;;;;;;7.40;3.20;;;;;;;23.70;61.42;100540.94;5051034;28;20098;-73
2022/07/17 01:28:20;;;;;;;9.60;3.15;;;;;;;23.62;61.41;100539.31;5051167;28;20265;-74
2022/07/17 01:30:51;;;;;;;5.47;2.80;;;;;;;23.57;61.81;100539.38;5051455;28;20124;-71
2022/07/17 01:33:17;;;;;;;4.00;2.88;;;;;;;23.56;61.68;100551.69;5051067;28;20024;-74
2022/07/17 01:35:43;;;;;;;7.60;2.80;;;;;;;23.38;61.64;100512.44;5015614;28;20044;-76
2022/07/17 01:38:08;;;;;;;8.18;2.88;;;;;;;23.59;62.44;100542.88;5051041;28;20021;-71
2022/07/17 01:40:34;;;;;;;5.60;2.95;;;;;;;23.68;62.13;100540.06;5051066;28;20063;-73
2022/07/17 01:42:59;;;;;;;7.47;2.92;;;;;;;23.47;61.50;100483.31;5036766;28;20061;-71
2022/07/17 01:45:25;;;;;;;7.13;3.03;;;;;;;24.01;60.64;100545.72;5031188;28;20024;-75
2022/07/17 01:47:50;;;;;;;5.88;3.00;;;;;;;24.02;60.63;100539.50;5030509;28;20033;-73
2022/07/17 01:50:16;;;;;;;8.75;3.20;;;;;;;24.21;60.56;100553.25;5013067;28;20365;-73
2022/07/17 01:52:43;;;;;;;6.60;2.95;;;;;;;24.15;59.65;100520.84;5030546;28;20029;-74
2022/07/17 01:55:12;;;;;;;8.25;3.90;;;;;;;24.32;58.74;100550.41;5030812;28;20025;-73
2022/07/17 01:57:38;;;;;;;7.75;3.20;;;;;;;24.45;59.27;100558.97;5030780;28;20026;-73
2022/07/17 02:00:05;;;;;;;9.65;3.00;;;;;;;24.18;59.39;100510.25;5030643;28;20026;-73
2022/07/17 02:02:31;;;;;;;12.15;2.97;;;;;;;24.46;59.46;100547.53;5030154;28;20403;-74
2022/07/17 02:04:56;;;;;;;4.47;2.83;;;;;;;24.36;59.22;100511.66;5030540;28;20033;-75
2022/07/17 02:07:22;;;;;;;9.10;2.85;;;;;;;24.64;58.06;100543.63;5030603;28;20071;-72
2022/07/17 02:09:47;;;;;;;6.18;3.30;;;;;;;24.63;57.21;100533.97;5030728;28;20037;-71
2022/07/17 02:12:13;;;;;;;7.45;2.90;;;;;;;24.65;57.67;100547.16;5030476;28;20030;-72
2022/07/17 02:14:38;;;;;;;4.28;2.97;;;;;;;24.56;57.69;100532.34;5030832;28;20534;-73
2022/07/17 02:17:03;;;;;;;9.65;2.70;;;;;;;24.73;58.16;100547.91;5030430;28;20037;-73
2022/07/17 02:19:29;;;;;;;7.07;3.13;;;;;;;24.55;58.48;100538.56;5030249;28;20106;-73
2022/07/17 02:21:55;;;;;;;8.77;3.10;;;;;;;24.38;58.17;100529.19;5030411;28;20472;-73
2022/07/17 02:24:20;;;;;;;6.32;3.13;;;;;;;24.38;57.93;100552.94;5030193;28;20033;-74
2022/07/17 02:26:46;;;;;;;5.03;2.72;;;;;;;24.26;57.16;100521.50;5030448;28;20037;-72
2022/07/17 02:29:11;;;;;;;6.88;2.90;;;;;;;24.27;58.17;100547.00;5030411;28;20021;-73
2022/07/17 02:31:37;;;;;;;9.27;3.33;;;;;;;24.09;58.02;100518.31;5030142;28;20029;-73
2022/07/17 02:34:02;;;;;;;6.28;3.00;;;;;;;24.21;58.89;100541.81;5030239;28;20056;-75
2022/07/17 02:36:27;;;;;;;7.43;2.90;;;;;;;24.23;58.99;100542.69;5030199;28;20036;-73
2022/07/17 02:38:53;;;;;;;7.28;2.80;;;;;;;24.22;59.93;100548.84;5030334;28;20490;-73
2022/07/17 02:41:19;;;;;;;7.80;3.22;;;;;;;24.15;60.25;100537.56;5029950;28;20033;-72
2022/07/17 02:43:44;;;;;;;8.63;3.05;;;;;;;24.11;60.11;100542.91;5030164;28;20104;-73
2022/07/17 02:46:10;;;;;;;5.40;3.20;;;;;;;23.99;60.94;100551.88;5029907;28;20029;-73
2022/07/17 02:48:35;;;;;;;8.73;3.60;;;;;;;23.87;61.24;100561.72;5029771;28;20087;-74
2022/07/17 02:51:01;;;;;;;9.60;3.25;;;;;;;23.68;61.97;100555.03;5029857;28;20434;-72
2022/07/17 02:53:26;;;;;;;7.95;3.40;;;;;;;23.74;61.89;100576.00;5029731;28;20037;-72
2022/07/17 02:55:52;;;;;;;9.20;3.42;;;;;;;23.77;62.00;100562.78;5029857;28;20030;-73
2022/07/17 02:58:18;;;;;;;9.77;3.50;;;;;;;23.80;62.10;100570.66;5030127;28;20480;-73
2022/07/17 03:00:43;;;;;;;5.53;3.15;;;;;;;23.83;61.23;100567.94;5029753;28;20033;-73
2022/07/17 03:03:09;;;;;;;10.70;3.50;;;;;;;23.52;62.31;100551.75;5011812;28;20167;-73
2022/07/17 03:05:34;;;;;;;10.93;3.70;;;;;;;23.53;62.60;100578.06;5033687;28;20052;-74
2022/07/17 03:08:00;;;;;;;7.15;3.05;;;;;;;23.45;62.29;100574.66;5033976;28;20029;-73
2022/07/17 03:10:25;;;;;;;13.45;3.35;;;;;;;23.50;61.33;100579.88;5033679;28;20040;-73
2022/07/17 03:12:51;;;;;;;6.53;2.97;;;;;;;23.54;60.82;100579.81;5033567;28;20033;-74
2022/07/17 03:15:17;;;;;;;8.98;3.60;;;;;;;23.63;61.11;100572.66;5033627;28;20029;-74
2022/07/17 03:17:42;;;;;;;9.57;3.33;;;;;;;23.52;61.74;100568.41;5033040;28;20025;-75
2022/07/17 03:20:09;;;;;;;7.20;3.08;;;;;;;23.52;61.48;100575.47;5033498;28;20403;-73
2022/07/17 03:22:35;;;;;;;9.00;3.60;;;;;;;23.59;61.40;100579.75;5033258;28;20116;-73
2022/07/17 03:25:00;;;;;;;6.95;3.30;;;;;;;23.51;62.72;100585.13;5033707;28;20747;-73
2022/07/17 03:27:26;;;;;;;10.13;3.47;;;;;;;23.51;62.28;100581.63;5033246;28;20022;-73
2022/07/17 03:29:53;;;;;;;9.15;3.60;;;;;;;23.46;63.17;100583.47;5033635;28;20022;-74
2022/07/17 03:32:19;;;;;;;9.73;3.50;;;;;;;22.84;64.41;100539.50;5033187;28;20418;-74
2022/07/17 03:34:45;;;;;;;7.47;3.55;;;;;;;23.12;64.38;100581.28;5033370;28;20104;-75
2022/07/17 03:37:10;;;;;;;12.10;3.72;;;;;;;23.05;64.09;100560.28;5033676;28;20029;-75
2022/07/17 03:39:36;;;;;;;10.93;4.05;;;;;;;23.29;63.92;100578.44;5033180;28;20038;-75
2022/07/17 03:42:01;;;;;;;6.35;3.53;;;;;;;23.06;63.31;100556.75;5032863;28;20149;-75
2022/07/17 03:44:27;;;;;;;7.30;3.60;;;;;;;23.32;63.25;100591.56;5032971;28;20045;-73
2022/07/17 03:46:52;;;;;;;9.35;3.45;;;;;;;23.40;63.06;100595.84;5032242;28;20408;-75
2022/07/17 03:49:18;;;;;;;11.43;3.47;;;;;;;23.27;63.27;100581.94;5032323;28;20029;-72
2022/07/17 03:51:43;;;;;;;9.43;3.67;;;;;;;23.32;63.59;100589.78;5032474;28;20025;-74
2022/07/17 03:54:09;;;;;;;10.25;3.28;;;;;;;23.33;63.66;100581.00;5032994;28;20026;-72
2022/07/17 03:56:34;;;;;;;9.63;3.38;;;;;;;23.38;63.84;100594.97;5032839;28;20026;-73
2022/07/17 03:59:00;;;;;;;8.68;3.72;;;;;;;23.40;63.79;100598.47;5015269;28;20472;-72
2022/07/17 04:01:26;;;;;;;9.45;3.38;;;;;;;23.43;64.00;100602.81;5032637;28;20021;-73
2022/07/17 04:03:51;;;;;;;7.78;3.42;;;;;;;23.43;64.62;100611.59;5014862;28;20025;-72
2022/07/17 04:06:18;;;;;;;8.02;3.55;;;;;;;23.34;64.29;100610.84;5032961;28;20022;-72
2022/07/17 04:08:43;;;;;;;7.63;3.40;;;;;;;23.26;64.33;100616.22;5032661;28;20029;-74
2022/07/17 04:11:09;;;;;;;11.27;3.95;;;;;;;23.22;64.59;100610.13;5032628;28;20494;-73
2022/07/17 04:13:34;;;;;;;15.00;3.80;;;;;;;23.18;64.69;100602.28;5032478;28;20025;-74
2022/07/17 04:16:00;;;;;;;7.85;3.33;;;;;;;23.27;64.70;100615.34;5031879;28;20112;-73
2022/07/17 04:18:28;;;;;;;7.40;3.60;;;;;;;23.32;64.53;100625.81;5032270;28;20030;-74
2022/07/17 04:20:58;;;;;;;11.35;3.63;;;;;;;23.32;64.08;100621.41;5032360;28;20061;-72
2022/07/17 04:23:23;;;;;;;;;;;;;;;23.29;64.65;100626.72;5033085;28;20026;-76
2022/07/17 04:25:49;;;;;;;7.15;3.28;;;;;;;23.33;64.67;100622.25;5032346;28;19924;-73
2022/07/17 04:28:15;;;;;;;6.35;3.30;;;;;;;23.04;64.41;100562.91;5031973;28;20029;-74
2022/07/17 04:30:41;;;;;;;6.55;3.35;;;;;;;23.30;64.10;100628.44;5030814;28;20087;-74
2022/07/17 04:33:07;;;;;;;8.88;3.60;;;;;;;23.08;65.70;100628.69;5031440;28;20159;-74
2022/07/17 04:35:33;;;;;;;10.48;3.50;;;;;;;23.05;67.39;100641.91;5032373;28;20120;-74
2022/07/17 04:37:58;;;;;;;9.35;3.70;;;;;;;22.69;67.35;100583.56;5031985;28;20072;-72
2022/07/17 04:40:24;;;;;;;9.68;3.47;;;;;;;22.69;67.73;100569.50;5032165;28;20515;-74
2022/07/17 04:42:49;;;;;;;11.82;4.00;;;;;;;22.89;68.00;100632.44;5042173;28;20114;-76
2022/07/17 04:45:15;;;;;;;8.02;4.00;;;;;;;23.01;67.99;100637.56;5051576;28;20154;-71
2022/07/17 04:47:41;;;;;;;5.63;3.78;;;;;;;23.09;68.03;100635.72;5052097;28;20036;-72
2022/07/17 04:50:08;;;;;;;7.88;4.07;;;;;;;23.12;68.38;100642.69;5051940;28;20044;-73
2022/07/17 04:52:34;;;;;;;4.72;3.38;;;;;;;23.20;69.51;100647.91;5050994;28;20123;-73
2022/07/17 04:54:59;;;;;;;5.88;3.58;;;;;;;23.21;69.30;100647.88;5051606;28;20072;-72
2022/07/17 04:57:25;;;;;;;6.28;3.45;;;;;;;23.06;69.24;100622.56;5051012;28;20036;-74
2022/07/17 04:59:50;;;;;;;7.43;3.08;;;;;;;23.35;68.54;100641.56;5051464;28;20029;-73
2022/07/17 05:02:16;;;;;;;8.93;3.30;;;;;;;23.42;68.67;100646.72;5029263;28;20242;-72
2022/07/17 05:04:41;;;;;;;8.07;3.40;;;;;;;23.51;68.48;100636.97;5029281;28;20037;-73
2022/07/17 05:07:06;;;;;;;8.93;3.20;;;;;;;23.47;66.81;100616.81;5029497;28;20052;-73
2022/07/17 05:09:32;;;;;;;5.93;3.40;;;;;;;23.60;67.38;100650.00;5029264;28;20029;-72
2022/07/17 05:11:57;;;;;;;11.30;3.65;;;;;;;23.38;67.94;100621.31;5029291;28;20503;-75
2022/07/17 05:14:23;;;;;;;9.10;3.30;;;;;;;23.67;69.34;100659.56;5028998;28;20026;-73
2022/07/17 05:16:48;;;;;;;7.60;3.65;;;;;;;23.63;69.50;100642.06;5029096;28;20057;-73
2022/07/17 05:19:14;;;;;;;9.93;3.17;;;;;;;23.85;69.04;100665.47;5029425;28;20087;-75
2022/07/17 05:21:39;;;;;;;8.77;3.50;;;;;;;23.90;67.56;100645.16;5012349;28;20040;-73
2022/07/17 05:24:04;;;;;;;5.85;3.45;;;;;;;23.90;66.83;100656.59;5028956;28;20033;-75
2022/07/17 05:26:30;;;;;;;8.02;3.33;;;;;;;24.02;66.27;100667.88;5028319;28;20032;-74
2022/07/17 05:28:55;;;;;;;5.60;3.03;;;;;;;23.81;67.20;100634.78;5012175;28;20124;-76
2022/07/17 05:31:21;;;;;;;6.78;3.20;;;;;;;24.09;66.33;100672.16;5028996;28;20029;-74
2022/07/17 05:33:46;;;;;;;5.35;3.10;;;;;;;23.97;65.64;100646.00;5044835;28;20445;-72
2022/07/17 05:36:12;;;;;;;6.65;4.25;;;;;;;24.17;65.26;100666.75;5051092;28;20447;-74
2022/07/17 05:38:37;;;;;;;5.60;2.75;;;;;;;24.33;63.50;100675.31;5050817;28;20029;-75
2022/07/17 05:41:04;;;;;;;7.90;2.90;;;;;;;24.13;63.37;100626.38;5051615;28;20035;-73
2022/07/17 05:43:29;;;;;;;5.13;2.88;;;;;;;24.44;63.83;100657.50;5034907;28;20057;-74
2022/07/17 05:45:57;;;;;;;5.28;3.15;;;;;;;24.57;62.26;100654.66;5031238;28;20021;-73
2022/07/17 05:48:22;;;;;;;4.60;2.90;;;;;;;24.49;65.03;100642.47;5029706;28;20697;-76
2022/07/17 05:50:48;;;;;;;5.90;3.20;;;;;;;24.85;64.34;100665.59;5030428;28;20124;-74
2022/07/17 05:53:14;;;;;;;4.80;3.22;;;;;;;24.73;62.85;100620.97;5030909;28;20051;-73
2022/07/17 05:55:40;;;;;;;4.57;2.60;;;;;;;24.71;62.09;100603.38;5013114;28;20029;-71
2022/07/17 05:58:06;;;;;;;6.75;3.20;;;;;;;25.22;65.97;100677.19;5017813;28;20032;-75
2022/07/17 06:00:32;;;;;;;7.53;3.15;;;;;;;25.04;61.81;100621.19;4995448;28;20475;-76
2022/07/17 06:02:58;;;;;;;7.50;3.30;;;;;;;25.44;61.62;100667.09;5030479;28;20025;-74
2022/07/17 06:05:25;;;;;;;7.05;3.17;;;;;;;25.53;60.49;100653.66;4998806;28;20048;-73
2022/07/17 06:07:51;;;;;;;7.03;3.53;;;;;;;25.79;59.65;100668.06;5002248;28;20037;-74
2022/07/17 06:10:16;;;;;;;7.18;3.17;;;;;;;25.91;58.48;100654.56;5030374;28;20064;-74
2022/07/17 06:12:42;;;;;;;8.25;3.10;;;;;;;26.14;58.36;100664.63;5030088;28;20033;-74
2022/07/17 06:15:08;;;;;;;6.20;2.75;;;;;;;26.29;57.63;100651.88;5030526;28;20034;-74
2022/07/17 06:17:33;;;;;;;7.25;2.83;;;;;;;26.37;57.50;100641.09;5030785;28;20107;-74
2022/07/17 06:19:59;;;;;;;6.32;3.38;;;;;;;26.67;59.25;100663.25;5030515;28;20507;-73
2022/07/17 06:22:24;;;;;;;10.63;3.55;;;;;;;26.72;57.85;100663.16;5029822;28;20032;-73
2022/07/17 06:24:50;;;;;;;8.85;3.25;;;;;;;26.84;57.61;100667.25;5029815;28;20045;-72
2022/07/17 06:27:16;;;;;;;7.57;3.20;;;;;;;27.01;56.27;100658.84;5029800;28;20022;-74
2022/07/17 06:29:41;;;;;;;3.75;2.78;;;;;;;27.01;50.97;100629.69;5030099;28;20060;-75
2022/07/17 06:32:06;;;;;;;4.43;2.60;;;;;;;27.17;50.09;100640.72;5029958;28;20021;-78
2022/07/17 06:34:32;;;;;;;7.43;3.40;;;;;;;27.13;54.77;100639.94;5029600;28;20460;-74
2022/07/17 06:36:57;;;;;;;4.95;2.60;;;;;;;27.22;48.85;100634.34;5029328;28;20394;-72
2022/07/17 06:39:23;;;;;;;6.50;3.00;;;;;;;27.14;46.90;100591.31;5010815;28;20435;-73
2022/07/17 06:41:48;;;;;;;5.88;2.28;;;;;;;27.45;42.05;100640.78;5031398;28;20503;-73
2022/07/17 06:44:14;;;;;;;8.00;2.88;;;;;;;27.44;39.38;100631.06;5049461;28;20036;-69
2022/07/17 06:46:39;;;;;;;7.57;2.15;;;;;;;27.40;38.79;100618.84;5049502;28;20458;-71
2022/07/17 06:49:05;;;;;;;6.05;2.33;;;;;;;27.60;39.54;100644.72;5049578;28;20040;-72
2022/07/17 06:51:30;;;;;;;8.30;2.40;;;;;;;27.63;37.17;100635.81;5049130;28;20025;-72
2022/07/17 06:53:55;;;;;;;4.68;2.08;;;;;;;27.70;36.61;100650.63;5049192;28;20113;-72
2022/07/17 06:56:21;;;;;;;13.73;3.00;;;;;;;27.82;35.58;100636.97;5049204;28;20017;-73
2022/07/17 06:58:47;;;;;;;6.78;2.25;;;;;;;27.68;37.88;100607.38;5049285;28;20108;-73
2022/07/17 07:01:12;;;;;;;5.00;2.17;;;;;;;28.01;36.34;100646.97;5049291;28;20024;-71
2022/07/17 07:03:38;;;;;;;4.43;2.03;;;;;;;28.02;36.13;100648.72;5047538;28;20510;-73
2022/07/17 07:06:03;;;;;;;2.72;2.00;;;;;;;28.02;35.36;100630.16;5048387;28;20029;-73
2022/07/17 07:08:29;;;;;;;6.63;2.15;;;;;;;28.19;35.43;100648.19;5048456;28;20033;-68
2022/07/17 07:10:55;;;;;;;4.90;1.98;;;;;;;28.06;34.91;100619.41;5047756;28;20028;-72
2022/07/17 07:13:20;;;;;;;9.43;2.60;;;;;;;28.21;36.67;100657.84;5048768;28;20121;-69
2022/07/17 07:15:46;;;;;;;5.43;2.28;;;;;;;28.31;36.16;100657.53;5014017;28;20033;-71
2022/07/17 07:18:13;;;;;;;6.15;1.92;;;;;;;28.04;36.27;100593.84;5049047;28;20025;-69
2022/07/17 07:20:38;;;;;;;3.22;2.03;;;;;;;28.38;35.54;100641.31;5049022;28;20078;-69
2022/07/17 07:23:04;;;;;;;3.35;2.05;;;;;;;28.50;34.42;100652.44;5049609;28;20458;-68
2022/07/17 07:25:30;;;;;;;7.97;2.38;;;;;;;28.60;35.80;100648.56;5049277;28;20032;-68
2022/07/17 07:27:56;;;;;;;5.60;2.33;;;;;;;28.46;34.51;100641.03;5049341;28;20029;-67
2022/07/17 07:30:21;;;;;;;5.97;2.40;;;;;;;28.30;34.27;100589.41;5048822;28;20021;-71
2022/07/17 07:32:46;;;;;;;4.97;1.90;;;;;;;28.60;34.11;100627.31;5049430;28;20029;-70
2022/07/17 07:35:12;;;;;;;4.22;2.00;;;;;;;28.53;34.40;100599.22;5048778;28;20094;-70
2022/07/17 07:37:38;;;;;;;7.03;2.25;;;;;;;28.95;32.10;100642.91;5049135;28;20036;-71
2022/07/17 07:40:04;;;;;;;11.70;2.55;;;;;;;28.98;31.50;100648.97;5048740;28;20460;-72
2022/07/17 07:42:30;;;;;;;7.32;2.10;;;;;;;29.08;31.62;100645.97;5048801;28;20489;-71
2022/07/17 07:44:55;;;;;;;5.72;1.88;;;;;;;29.03;31.25;100639.03;5049294;28;20140;-70
2022/07/17 07:47:21;;;;;;;9.93;2.25;;;;;;;29.23;32.30;100655.16;5048945;28;20502;-70
2022/07/17 07:49:46;;;;;;;7.13;2.15;;;;;;;29.28;31.32;100661.16;5031837;28;20060;-71
2022/07/17 07:52:13;;;;;;;12.55;2.58;;;;;;;29.33;29.70;100654.75;5052392;28;20071;-70
2022/07/17 07:54:38;;;;;;;10.75;2.35;;;;;;;29.12;29.40;100607.72;5052245;28;20033;-69
2022/07/17 07:57:04;;;;;;;6.05;1.98;;;;;;;29.59;28.91;100641.41;5052897;28;20025;-69
2022/07/17 07:59:32;;;;;;;13.13;2.53;;;;;;;29.69;28.94;100650.72;5052897;28;20033;-69
2022/07/17 08:01:59;;;;;;;13.80;2.67;;;;;;;29.68;30.23;100654.31;5052532;28;20024;-70
2022/07/17 08:04:24;;;;;;;19.10;2.38;;;;;;;29.36;28.21;100611.25;5052776;28;20060;-70
2022/07/17 08:06:50;;;;;;;4.47;2.00;;;;;;;29.69;29.55;100666.69;5052113;28;20048;-69
2022/07/17 08:09:15;;;;;;;4.03;2.20;;;;;;;29.74;29.89;100666.53;5052225;28;20033;-70
2022/07/17 08:11:40;;;;;;;9.05;2.28;;;;;;;29.69;29.24;100664.88;5052781;28;20025;-71
2022/07/17 08:14:26;;;;;;;5.63;2.47;;;;;;;29.73;29.48;100660.31;4998766;28;20113;-71
2022/07/17 08:16:51;;;;;;;4.10;1.60;;;;;;;29.68;28.19;100652.53;4994362;28;20122;-71
2022/07/17 08:19:17;;;;;;;3.97;2.08;;;;;;;29.66;28.13;100634.91;5007883;28;20034;-71
2022/07/17 08:21:43;;;;;;;7.32;2.08;;;;;;;30.07;30.77;100664.31;5010652;28;20502;-72
2022/07/17 08:24:08;;;;;;;17.70;2.40;;;;;;;30.24;28.57;100673.38;5010402;28;20054;-70
2022/07/17 08:26:34;;;;;;;12.40;2.30;;;;;;;30.24;28.25;100686.69;5010617;28;20030;-72
2022/07/17 08:29:00;;;;;;;6.55;1.85;;;;;;;30.12;27.68;100678.28;5010456;28;20042;-72
2022/07/17 08:31:26;;;;;;;5.28;2.08;;;;;;;30.05;26.83;100673.28;5010732;28;20029;-71
2022/07/17 08:33:51;;;;;;;6.53;1.80;;;;;;;30.10;26.17;100682.81;5010416;28;20099;-71
2022/07/17 08:36:17;;;;;;;4.45;1.83;;;;;;;30.21;29.50;100684.16;5010119;28;20030;-70
2022/07/17 08:38:42;;;;;;;4.63;2.00;;;;;;;30.19;26.80;100676.22;5010350;28;20097;-70
2022/07/17 08:41:10;;;;;;;17.42;2.75;;;;;;;30.30;27.46;100679.31;5010136;28;20034;-71
2022/07/17 08:43:35;;;;;;;9.93;2.42;;;;;;;30.44;27.38;100688.50;5009977;28;20093;-71
2022/07/17 08:46:02;;;;;;;8.90;2.00;;;;;;;30.50;27.08;100675.81;5041504;28;20076;-70
2022/07/17 08:48:28;;;;;;;10.52;2.30;;;;;;;30.37;27.03;100674.59;5052097;28;20471;-70
2022/07/17 08:50:57;;;;;;;17.63;2.90;;;;;;;30.56;28.59;100679.16;5052220;28;20020;-70
2022/07/17 08:53:22;;;;;;;11.07;2.70;;;;;;;30.19;27.24;100609.66;5052278;28;20052;-70
2022/07/17 08:55:48;;;;;;;14.18;2.80;;;;;;;30.55;30.07;100653.47;5052025;28;20467;-70
2022/07/17 08:58:17;;;;;;;18.67;3.13;;;;;;;30.71;27.76;100678.50;5052299;28;20044;-73
2022/07/17 09:00:43;;;;;;;13.57;2.58;;;;;;;30.68;27.72;100685.75;5052168;28;20025;-71
2022/07/17 09:03:09;;;;;;;11.02;2.30;;;;;;;30.38;27.84;100625.72;5051938;28;20099;-71
2022/07/17 09:05:40;;;;;;;8.48;2.53;;;;;;;30.72;28.16;100680.22;5051952;28;20021;-71
2022/07/17 09:08:08;;;;;;;4.43;2.08;;;;;;;30.45;29.22;100632.50;5000099;28;20061;-71
2022/07/17 09:10:35;;;;;;;16.85;2.88;;;;;;;30.66;28.30;100624.53;5052053;28;20033;-71
2022/07/17 09:13:12;;;;;;;51.30;6.90;;;;;;;31.02;27.91;100679.78;5016338;28;20065;-70
2022/07/17 09:15:37;;;;;;;13.10;2.50;;;;;;;30.99;26.70;100685.25;5052011;28;20029;-73
2022/07/17 09:18:03;;;;;;;7.75;2.00;;;;;;;30.93;26.17;100672.19;5051478;28;20040;-71
2022/07/17 09:20:28;;;;;;;6.63;2.35;;;;;;;31.21;28.67;100682.50;5051541;28;20477;-72
2022/07/17 09:22:58;;;;;;;25.88;3.28;;;;;;;31.25;27.24;100678.75;5051605;28;20064;-72
2022/07/17 09:25:43;;;;;;;18.05;2.65;;;;;;;31.17;27.31;100682.69;5051463;28;20384;-72
2022/07/17 09:28:12;;;;;;;5.22;2.00;;;;;;;31.30;26.45;100670.53;5016292;28;20124;-72
2022/07/17 09:30:41;;;;;;;37.53;5.53;;;;;;;31.43;26.95;100681.50;5051195;28;20029;-72
2022/07/17 09:33:12;;;;;;;35.03;4.03;;;;;;;31.44;25.36;100675.22;5051558;28;20860;-72
2022/07/17 09:35:48;;;;;;;13.20;2.33;;;;;;;31.37;26.33;100669.31;5051352;28;20032;-72
2022/07/17 09:38:35;;;;;;;16.20;2.78;;;;;;;31.33;26.25;100690.84;5033574;28;20376;-70
2022/07/17 09:41:09;;;;;;;22.27;2.88;;;;;;;31.43;27.13;100678.84;5051057;28;20025;-73
2022/07/17 09:43:57;;;;;;;83.53;8.65;;;;;;;31.57;24.71;100688.84;5051360;28;20143;-73
2022/07/17 09:46:26;;;;;;;16.58;3.00;;;;;;;31.65;26.30;100686.69;5051048;28;20521;-74
2022/07/17 09:48:54;;;;;;;29.88;4.60;;;;;;;31.71;25.29;100686.41;5051149;28;20051;-71
2022/07/17 09:51:22;;;;;;;13.57;2.50;;;;;;;31.65;24.99;100686.69;5050886;28;20017;-68
2022/07/17 09:53:50;;;;;;;10.45;2.75;;;;;;;31.77;26.03;100679.91;5015891;28;20453;-70
2022/07/17 09:56:18;;;;;;;12.65;2.67;;;;;;;31.55;25.88;100642.69;5050962;28;20482;-70
2022/07/17 09:58:47;;;;;;;7.80;2.42;;;;;;;31.58;25.59;100672.75;5051151;28;20040;-70
2022/07/17 10:01:15;;;;;;;7.90;2.05;;;;;;;31.59;26.34;100682.50;5050850;28;20136;-71
2022/07/17 10:03:41;;;;;;;7.53;2.72;;;;;;;31.75;27.67;100687.13;5050603;28;20033;-70
2022/07/17 10:06:08;;;;;;;5.05;2.28;;;;;;;31.83;27.40;100694.75;5050649;28;20025;-69
2022/07/17 10:08:35;;;;;;;10.10;2.55;;;;;;;31.89;26.85;100679.31;5050668;28;20116;-70
2022/07/17 10:11:01;;;;;;;17.70;3.85;;;;;;;32.06;25.98;100674.94;5050490;28;20478;-70
2022/07/17 10:13:27;;;;;;;3.63;2.38;;;;;;;31.99;26.16;100669.06;5050284;28;20145;-70
2022/07/17 10:15:53;;;;;;;7.32;2.13;;;;;;;31.93;26.87;100672.03;5050871;28;20021;-70
2022/07/17 10:18:20;;;;;;;6.90;2.42;;;;;;;31.89;27.85;100686.44;5050787;28;20035;-70
2022/07/17 10:20:46;;;;;;;4.25;2.08;;;;;;;32.06;25.51;100681.13;5051103;28;20689;-69
2022/07/17 10:23:34;;;;;;;3.67;2.05;;;;;;;32.25;25.99;100688.25;5050529;28;20124;-69
2022/07/17 10:26:01;;;;;;;3.85;1.80;;;;;;;31.83;25.66;100639.56;4988835;28;20034;-72
2022/07/17 10:28:44;;;;;;;13.32;4.43;;;;;;;32.47;26.31;100668.47;4988777;28;20050;-69
2022/07/17 10:31:10;;;;;;;8.93;3.95;;;;;;;32.69;26.69;100669.06;4988758;28;20043;-69
2022/07/17 10:33:36;;;;;;;2.63;2.10;;;;;;;32.98;25.75;100658.66;4988661;28;20042;-70
2022/07/17 10:36:02;;;;;;;12.77;3.10;;;;;;;33.21;26.31;100665.44;4988571;28;20065;-70
2022/07/17 10:38:28;;;;;;;5.32;2.38;;;;;;;33.05;27.08;100621.75;4988679;28;20042;-69
2022/07/17 10:41:01;;;;;;;6.57;2.22;;;;;;;33.42;26.23;100672.38;4988808;28;20066;-70
2022/07/17 10:43:27;;;;;;;9.80;2.55;;;;;;;33.05;24.77;100627.09;4988232;28;20054;-71
2022/07/17 10:45:53;;;;;;;13.60;2.33;;;;;;;33.11;25.85;100660.66;4988677;28;20039;-72
2022/07/17 10:48:20;;;;;;;6.18;2.38;;;;;;;33.08;26.13;100660.84;4970493;28;20043;-70
2022/07/17 10:50:51;;;;;;;9.80;2.15;;;;;;;32.93;24.92;100617.06;4969052;28;20060;-68
2022/07/17 10:53:43;;;;;;;4.97;2.10;;;;;;;33.27;26.00;100666.03;4969188;28;20038;-70
2022/07/17 10:56:10;;;;;;;11.15;2.80;;;;;;;33.14;26.90;100647.13;4958516;28;20431;-69
2022/07/17 10:58:41;;;;;;;11.35;2.92;;;;;;;33.18;27.89;100654.88;5008160;28;20125;-70
2022/07/17 11:01:09;;;;;;;6.10;2.58;;;;;;;33.08;25.69;100615.38;5007912;28;20598;-68
2022/07/17 11:03:44;;;;;;;6.28;2.28;;;;;;;33.45;25.96;100650.78;5008048;28;20096;-70
2022/07/17 11:06:24;;;;;;;4.30;2.20;;;;;;;33.66;27.65;100646.00;5007929;28;20051;-71
2022/07/17 11:08:52;;;;;;;22.20;3.55;;;;;;;33.11;25.90;100648.16;4959135;28;20420;-69
2022/07/17 11:11:22;;;;;;;8.95;2.20;;;;;;;32.93;26.11;100609.06;5008107;28;20038;-69
2022/07/17 11:13:48;;;;;;;5.03;2.20;;;;;;;33.31;26.06;100641.75;5008055;28;20042;-70
2022/07/17 11:16:29;;;;;;;5.75;1.95;;;;;;;33.37;25.21;100606.59;5008068;28;20033;-68
2022/07/17 11:18:55;;;;;;;11.70;2.55;;;;;;;33.50;24.61;100638.88;5007905;28;20523;-69
2022/07/17 11:21:21;;;;;;;6.80;2.63;;;;;;;33.22;25.15;100636.84;5007806;28;20038;-69